createdAt,value
2023-01-27T00:01:04.976Z,-1.76
2023-01-27T00:03:32.745Z,-1.78
2023-01-27T00:06:01.226Z,-1.76
2023-01-27T00:08:29.749Z,-1.70
2023-01-27T00:11:19.296Z,-1.70
2023-01-27T00:13:46.992Z,-1.74
2023-01-27T00:16:14.840Z,-1.76
2023-01-27T00:18:42.511Z,-1.77
2023-01-27T00:21:27.582Z,-1.80
2023-01-27T00:24:13.151Z,-1.83
2023-01-27T00:26:42.248Z,-1.78
2023-01-27T00:29:09.967Z,-1.85
2023-01-27T00:31:54.911Z,-1.91
2023-01-27T00:34:22.565Z,-1.90
2023-01-27T00:36:50.204Z,-1.82
2023-01-27T00:39:17.969Z,-1.85
2023-01-27T00:41:47.306Z,-1.83
2023-01-27T00:44:15.028Z,-1.97
2023-01-27T00:46:42.835Z,-1.92
2023-01-27T00:49:13.289Z,-1.95
2023-01-27T00:51:41.004Z,-1.87
2023-01-27T00:54:09.120Z,-1.95
2023-01-27T00:56:37.220Z,-1.92
2023-01-27T00:59:06.304Z,-1.91
2023-01-27T01:01:34.969Z,-1.90
2023-01-27T01:04:03.309Z,-1.91
2023-01-27T01:06:31.266Z,-1.92
2023-01-27T01:08:59.218Z,-1.87
2023-01-27T01:11:27.691Z,-1.88
2023-01-27T01:13:56.488Z,-1.92
2023-01-27T01:16:26.575Z,-1.87
2023-01-27T01:18:54.616Z,-1.89
2023-01-27T01:21:22.528Z,-1.87
2023-01-27T01:23:50.392Z,-1.88
2023-01-27T01:26:18.817Z,-1.90
2023-01-27T01:28:47.192Z,-1.83
2023-01-27T01:31:17.440Z,-1.80
2023-01-27T01:33:46.833Z,-1.77
2023-01-27T01:36:15.984Z,-1.74
2023-01-27T01:38:44.010Z,-1.77
2023-01-27T01:41:13.794Z,-1.79
2023-01-27T01:43:41.483Z,-1.81
2023-01-27T01:46:10.726Z,-1.78
2023-01-27T01:48:42.470Z,-1.77
2023-01-27T01:51:16.183Z,-1.81
2023-01-27T01:53:48.824Z,-1.77
2023-01-27T01:56:20.621Z,-1.73
2023-01-27T01:58:49.895Z,-1.72
2023-01-27T02:01:21.704Z,-1.65
2023-01-27T02:03:56.784Z,-1.61
2023-01-27T02:06:26.796Z,-1.59
2023-01-27T02:08:55.647Z,-1.63
2023-01-27T02:11:23.548Z,-1.63
2023-01-27T02:13:51.198Z,-1.64
2023-01-27T02:16:19.926Z,-1.65
2023-01-27T02:18:47.661Z,-1.65
2023-01-27T02:21:15.458Z,-1.65
2023-01-27T02:24:01.926Z,-1.63
2023-01-27T02:26:36.141Z,-1.58
2023-01-27T02:29:05.815Z,-1.62
2023-01-27T02:31:33.940Z,-1.60
2023-01-27T02:34:05.831Z,-1.57
2023-01-27T02:36:37.998Z,-1.57
2023-01-27T02:39:08.512Z,-1.54
2023-01-27T02:41:41.091Z,-1.48
2023-01-27T02:44:10.296Z,-1.44
2023-01-27T02:46:38.597Z,-1.54
2023-01-27T02:49:06.558Z,-1.51
2023-01-27T02:51:34.385Z,-1.53
2023-01-27T02:54:02.316Z,-1.50
2023-01-27T02:56:30.032Z,-1.54
2023-01-27T02:58:59.337Z,-1.49
2023-01-27T03:01:27.170Z,-1.48
2023-01-27T03:03:54.832Z,-1.48
2023-01-27T03:06:22.476Z,-1.51
2023-01-27T03:08:50.222Z,-1.52
2023-01-27T03:11:40.198Z,-1.48
2023-01-27T03:14:10.216Z,-1.52
2023-01-27T03:16:55.504Z,-1.47
2023-01-27T03:19:23.167Z,-1.38
2023-01-27T03:21:52.760Z,-1.39
2023-01-27T03:24:21.098Z,-1.35
2023-01-27T03:26:49.178Z,-1.37
2023-01-27T03:29:35.677Z,-1.31
2023-01-27T03:32:03.348Z,-1.42
2023-01-27T03:34:31.043Z,-1.40
2023-01-27T03:37:16.381Z,-1.45
2023-01-27T03:40:01.585Z,-1.50
2023-01-27T03:42:46.743Z,-1.51
2023-01-27T03:45:33.436Z,-1.53
2023-01-27T03:48:05.795Z,-1.59
2023-01-27T03:50:38.275Z,-1.64
2023-01-27T03:53:07.037Z,-1.63
2023-01-27T03:55:37.650Z,-1.66
2023-01-27T03:58:17.998Z,-1.63
2023-01-27T04:00:47.941Z,-1.74
2023-01-27T04:03:32.960Z,-1.72
2023-01-27T04:06:22.192Z,-1.72
2023-01-27T04:08:50.047Z,-1.71
2023-01-27T04:11:35.432Z,-1.70
2023-01-27T04:14:04.018Z,-1.68
2023-01-27T04:16:34.459Z,-1.67
2023-01-27T04:19:02.145Z,-1.73
2023-01-27T04:21:33.638Z,-1.73
2023-01-27T04:24:02.426Z,-1.69
2023-01-27T04:26:33.197Z,-1.70
2023-01-27T04:29:01.560Z,-1.68
2023-01-27T04:31:32.480Z,-1.68
2023-01-27T04:34:01.744Z,-1.68
2023-01-27T04:36:29.404Z,-1.69
2023-01-27T04:38:57.154Z,-1.68
2023-01-27T04:41:24.822Z,-1.72
2023-01-27T04:43:52.516Z,-1.68
2023-01-27T04:46:20.289Z,-1.68
2023-01-27T04:48:47.932Z,-1.72
2023-01-27T04:51:17.243Z,-1.69
2023-01-27T04:53:44.928Z,-1.68
2023-01-27T04:56:26.047Z,-1.73
2023-01-27T04:58:53.962Z,-1.71
2023-01-27T05:01:23.620Z,-1.68
2023-01-27T05:03:51.537Z,-1.68
2023-01-27T05:06:20.619Z,-1.65
2023-01-27T05:08:50.850Z,-1.65
2023-01-27T05:11:19.340Z,-1.61
2023-01-27T05:13:47.114Z,-1.64
2023-01-27T05:16:17.039Z,-1.74
2023-01-27T05:18:46.754Z,-1.70
2023-01-27T05:21:16.133Z,-1.70
2023-01-27T05:23:45.993Z,-1.69
2023-01-27T05:26:15.685Z,-1.69
2023-01-27T05:28:44.971Z,-1.73
2023-01-27T05:31:18.854Z,-1.74
2023-01-27T05:33:47.894Z,-1.71
2023-01-27T05:36:18.179Z,-1.72
2023-01-27T05:38:47.722Z,-1.73
2023-01-27T05:41:17.087Z,-1.71
2023-01-27T05:43:45.834Z,-1.74
2023-01-27T05:46:16.073Z,-1.75
2023-01-27T05:48:46.466Z,-1.73
2023-01-27T05:51:15.390Z,-1.74
2023-01-27T05:53:43.388Z,-1.68
2023-01-27T05:56:15.197Z,-1.69
2023-01-27T05:58:43.247Z,-1.72
2023-01-27T06:01:12.760Z,-1.71
2023-01-27T06:03:43.755Z,-1.60
2023-01-27T06:06:12.914Z,-1.66
2023-01-27T06:08:41.279Z,-1.61
2023-01-27T06:11:12.257Z,-1.55
2023-01-27T06:13:41.760Z,-1.56
2023-01-27T06:16:11.575Z,-1.53
2023-01-27T06:18:40.260Z,-1.56
2023-01-27T06:21:09.466Z,-1.54
2023-01-27T06:23:37.379Z,-1.53
2023-01-27T06:26:08.936Z,-1.50
2023-01-27T06:28:36.697Z,-1.59
2023-01-27T06:31:12.460Z,-1.57
2023-01-27T06:33:40.855Z,-1.61
2023-01-27T06:36:11.407Z,-1.62
2023-01-27T06:38:39.558Z,-1.61
2023-01-27T06:41:07.613Z,-1.62
2023-01-27T06:43:35.325Z,-1.58
2023-01-27T06:46:05.543Z,-1.57
2023-01-27T06:48:35.307Z,-1.54
2023-01-27T06:51:03.028Z,-1.53
2023-01-27T06:53:31.412Z,-1.46
2023-01-27T06:56:00.594Z,-1.44
2023-01-27T06:58:29.014Z,-1.42
2023-01-27T07:00:57.740Z,-1.38
2023-01-27T07:03:25.886Z,-1.35
2023-01-27T07:05:56.932Z,-1.37
2023-01-27T07:08:24.608Z,-1.34
2023-01-27T07:10:52.354Z,-1.30
2023-01-27T07:13:20.231Z,-1.32
2023-01-27T07:15:55.183Z,-1.35
2023-01-27T07:18:23.348Z,-1.37
2023-01-27T07:20:51.040Z,-1.36
2023-01-27T07:23:20.113Z,-1.34
2023-01-27T07:25:47.778Z,-1.34
2023-01-27T07:28:15.831Z,-1.26
2023-01-27T07:30:44.143Z,-1.28
2023-01-27T07:33:13.952Z,-1.22
2023-01-27T07:35:42.664Z,-1.25
2023-01-27T07:38:10.686Z,-1.23
2023-01-27T07:40:39.771Z,-1.21
2023-01-27T07:43:07.489Z,-1.22
2023-01-27T07:45:35.332Z,-1.18
2023-01-27T07:48:04.422Z,-1.12
2023-01-27T07:50:32.259Z,-1.16
2023-01-27T07:53:01.382Z,-1.18
2023-01-27T07:55:32.597Z,-1.13
2023-01-27T07:58:02.001Z,-1.10
2023-01-27T08:00:30.246Z,-1.11
2023-01-27T08:02:59.578Z,-1.11
2023-01-27T08:05:27.942Z,-1.10
2023-01-27T08:07:58.742Z,-1.06
2023-01-27T08:10:34.346Z,-0.97
2023-01-27T08:13:03.826Z,-0.94
2023-01-27T08:15:31.553Z,-0.89
2023-01-27T08:18:00.263Z,-0.83
2023-01-27T08:20:28.693Z,-0.73
2023-01-27T08:22:58.203Z,-0.66
2023-01-27T08:25:26.284Z,-0.60
2023-01-27T08:27:55.653Z,-0.58
2023-01-27T08:30:25.668Z,-0.55
2023-01-27T08:32:53.705Z,-0.56
2023-01-27T08:35:21.559Z,-0.60
2023-01-27T08:37:49.770Z,-0.61
2023-01-27T08:40:18.361Z,-0.66
2023-01-27T08:42:46.149Z,-0.71
2023-01-27T08:45:14.138Z,-0.66
2023-01-27T08:47:44.506Z,-0.74
2023-01-27T08:50:13.060Z,-0.67
2023-01-27T08:52:42.774Z,-0.70
2023-01-27T08:55:10.660Z,-0.65
2023-01-27T08:57:38.666Z,-0.52
2023-01-27T09:00:13.370Z,-0.36
2023-01-27T09:02:46.502Z,-0.26
2023-01-27T09:05:14.862Z,-0.19
2023-01-27T09:07:44.076Z,-0.14
2023-01-27T09:10:15.121Z,-0.14
2023-01-27T09:12:44.249Z,-0.14
2023-01-27T09:15:12.805Z,-0.09
2023-01-27T09:17:40.976Z,0.02
2023-01-27T09:20:12.287Z,-0.01
2023-01-27T09:22:41.278Z,0.06
2023-01-27T09:25:10.377Z,0.11
2023-01-27T09:27:39.828Z,0.11
2023-01-27T09:30:10.039Z,0.14
2023-01-27T09:32:37.756Z,0.10
2023-01-27T09:35:06.403Z,0.12
2023-01-27T09:37:39.897Z,0.06
2023-01-27T09:40:17.890Z,0.03
2023-01-27T09:43:08.355Z,0.07
2023-01-27T09:45:55.691Z,0.18
2023-01-27T09:48:41.828Z,0.31
2023-01-27T09:51:18.192Z,0.32
2023-01-27T09:54:02.186Z,0.24
2023-01-27T09:56:41.412Z,0.21
2023-01-27T09:59:24.107Z,0.27
2023-01-27T10:02:01.929Z,0.31
2023-01-27T10:04:49.619Z,0.27
2023-01-27T10:07:47.798Z,0.29
2023-01-27T10:10:34.183Z,0.33
2023-01-27T10:13:17.753Z,0.43
2023-01-27T10:15:58.378Z,0.54
2023-01-27T10:18:44.696Z,0.65
2023-01-27T10:21:21.087Z,0.78
2023-01-27T10:23:59.794Z,0.73
2023-01-27T10:26:36.450Z,0.75
2023-01-27T10:29:09.658Z,0.60
2023-01-27T10:31:41.783Z,0.54
2023-01-27T10:34:23.635Z,0.43
2023-01-27T10:37:02.921Z,0.39
2023-01-27T10:51:14.339Z,0.28
2023-01-27T10:53:57.355Z,0.20
2023-01-27T10:56:32.583Z,0.09
2023-01-27T10:59:06.468Z,0.07
2023-01-27T11:01:40.576Z,0.10
2023-01-27T11:04:14.744Z,0.08
2023-01-27T11:06:48.365Z,0.07
2023-01-27T11:09:26.018Z,0.00
2023-01-27T11:11:55.003Z,0.03
2023-01-27T11:14:30.629Z,0.07
2023-01-27T11:17:04.731Z,-0.06
2023-01-27T11:19:41.539Z,-0.08
2023-01-27T11:22:20.748Z,-0.03
2023-01-27T11:24:54.249Z,-0.11
2023-01-27T11:27:31.687Z,-0.05
2023-01-27T11:30:04.341Z,-0.09
2023-01-27T11:32:50.113Z,-0.11
2023-01-27T11:35:17.967Z,-0.19
2023-01-27T11:37:49.690Z,-0.18
2023-01-27T11:40:20.429Z,-0.17
2023-01-27T11:42:49.685Z,-0.21
2023-01-27T11:45:21.986Z,-0.12
2023-01-27T11:47:53.969Z,-0.16
2023-01-27T11:50:24.734Z,-0.17
2023-01-27T11:52:59.844Z,-0.19
2023-01-27T11:55:34.833Z,-0.13
2023-01-27T11:58:13.434Z,-0.18
2023-01-27T12:00:44.739Z,-0.17
2023-01-27T12:03:19.836Z,-0.18
2023-01-27T12:05:53.475Z,-0.22
2023-01-27T12:08:44.683Z,-0.26
2023-01-27T12:11:22.293Z,-0.19
2023-01-27T12:13:52.439Z,0.04
2023-01-27T12:16:25.820Z,0.13
2023-01-27T12:18:57.350Z,0.22
2023-01-27T12:21:39.148Z,0.27
2023-01-27T12:24:26.628Z,0.34
2023-01-27T12:26:55.976Z,0.54
2023-01-27T12:29:34.506Z,0.67
2023-01-27T12:32:04.327Z,0.74
2023-01-27T12:34:37.624Z,0.76
2023-01-27T12:37:08.665Z,0.85
2023-01-27T12:39:47.448Z,0.74
2023-01-27T12:42:38.564Z,0.72
2023-01-27T12:45:25.497Z,0.69
2023-01-27T12:48:02.571Z,0.63
2023-01-27T12:50:32.064Z,0.53
2023-01-27T12:53:06.139Z,0.43
2023-01-27T12:55:44.261Z,0.42
2023-01-27T12:58:31.334Z,0.32
2023-01-27T13:01:00.858Z,0.19
2023-01-27T13:03:30.340Z,0.25
2023-01-27T13:06:00.286Z,0.33
2023-01-27T13:08:33.394Z,0.38
2023-01-27T13:11:04.946Z,0.44
2023-01-27T13:13:32.877Z,0.49
2023-01-27T13:16:08.817Z,0.50
2023-01-27T13:18:39.596Z,0.48
2023-01-27T13:21:16.691Z,0.42
2023-01-27T13:23:48.357Z,0.31
2023-01-27T13:26:22.913Z,0.24
2023-01-27T13:28:56.482Z,0.18
2023-01-27T13:31:40.013Z,0.20
2023-01-27T13:34:17.483Z,0.22
2023-01-27T13:36:48.599Z,0.21
2023-01-27T13:39:22.646Z,0.16
2023-01-27T13:41:57.854Z,0.27
2023-01-27T13:44:33.395Z,0.20
2023-01-27T13:47:05.479Z,0.22
2023-01-27T13:49:40.056Z,0.08
2023-01-27T13:52:11.981Z,0.09
2023-01-27T13:54:40.110Z,0.13
2023-01-27T13:57:45.404Z,0.15
2023-01-27T14:00:21.281Z,0.00
2023-01-27T14:03:16.022Z,0.04
2023-01-27T14:05:56.976Z,0.05
2023-01-27T14:08:49.486Z,-0.07
2023-01-27T14:11:26.440Z,-0.06
2023-01-27T14:14:06.933Z,0.00
2023-01-27T14:16:45.714Z,-0.06
2023-01-27T14:19:29.766Z,0.05
2023-01-27T14:22:04.283Z,0.21
2023-01-27T14:24:41.318Z,0.23
2023-01-27T14:27:13.849Z,0.34
2023-01-27T14:29:50.617Z,0.33
2023-01-27T14:32:27.718Z,0.31
2023-01-27T14:35:23.748Z,0.37
2023-01-27T14:37:59.775Z,0.40
2023-01-27T14:40:31.473Z,0.33
2023-01-27T14:43:11.995Z,0.34
2023-01-27T14:45:48.907Z,0.20
2023-01-27T14:48:36.137Z,0.11
2023-01-27T14:51:09.397Z,0.12
2023-01-27T14:53:58.434Z,0.02
2023-01-27T14:56:37.151Z,-0.03
2023-01-27T14:59:15.334Z,-0.09
2023-01-27T15:01:53.093Z,-0.15
2023-01-27T15:04:37.328Z,-0.27
2023-01-27T15:07:16.990Z,-0.28
2023-01-27T15:10:04.817Z,-0.33
2023-01-27T15:12:51.811Z,-0.27
2023-01-27T15:15:34.754Z,-0.41
2023-01-27T15:18:24.878Z,-0.39
2023-01-27T15:21:20.813Z,-0.47
2023-01-27T15:24:30.503Z,-0.51
2023-01-27T15:26:59.102Z,-0.53
2023-01-27T15:29:30.727Z,-0.57
2023-01-27T15:32:29.494Z,-0.59
2023-01-27T15:35:44.901Z,-0.59
2023-01-27T15:38:34.152Z,-0.66
2023-01-27T15:41:15.693Z,-0.67
2023-01-27T15:44:07.337Z,-0.74
2023-01-27T15:46:37.293Z,-0.73
2023-01-27T15:49:13.890Z,-0.74
2023-01-27T15:51:41.707Z,-0.77
2023-01-27T15:54:17.547Z,-0.82
2023-01-27T15:56:54.047Z,-0.85
2023-01-27T15:59:25.215Z,-0.90
2023-01-27T16:02:03.688Z,-0.96
2023-01-27T16:04:33.131Z,-0.94
2023-01-27T16:07:03.880Z,-0.99
2023-01-27T16:09:39.371Z,-1.03
2023-01-27T16:12:28.255Z,-1.08
2023-01-27T16:15:17.634Z,-1.07
2023-01-27T16:17:59.199Z,-1.10
2023-01-27T16:20:30.928Z,-1.12
2023-01-27T16:23:02.970Z,-1.12
2023-01-27T16:25:40.737Z,-1.13
2023-01-27T16:28:15.356Z,-1.15
2023-01-27T16:30:49.740Z,-1.17
2023-01-27T16:33:23.388Z,-1.21
2023-01-27T16:35:59.596Z,-1.24
2023-01-27T16:38:30.455Z,-1.25
2023-01-27T16:41:03.500Z,-1.28
2023-01-27T16:43:37.238Z,-1.27
2023-01-27T16:46:05.357Z,-1.30
2023-01-27T16:48:38.581Z,-1.31
2023-01-27T16:51:16.281Z,-1.29
2023-01-27T16:53:47.813Z,-1.30
2023-01-27T16:56:23.072Z,-1.27
2023-01-27T16:58:51.869Z,-1.28
2023-01-27T17:01:24.453Z,-1.27
2023-01-27T17:03:56.791Z,-1.29
2023-01-27T17:06:27.651Z,-1.31
2023-01-27T17:08:55.276Z,-1.30
2023-01-27T17:11:26.978Z,-1.29
2023-01-27T17:13:59.951Z,-1.29
2023-01-27T17:16:30.894Z,-1.31
2023-01-27T17:19:05.208Z,-1.30
2023-01-27T17:21:37.483Z,-1.25
2023-01-27T17:24:12.094Z,-1.31
2023-01-27T17:26:44.430Z,-1.31
2023-01-27T17:29:18.234Z,-1.32
2023-01-27T17:31:46.745Z,-1.31
2023-01-27T17:34:19.382Z,-1.29
2023-01-27T17:37:06.757Z,-1.29
2023-01-27T17:39:38.861Z,-1.29
2023-01-27T17:42:08.605Z,-1.23
2023-01-27T17:44:38.914Z,-1.20
2023-01-27T17:47:08.060Z,-1.14
2023-01-27T17:49:35.861Z,-1.10
2023-01-27T17:52:09.910Z,-1.04
2023-01-27T17:54:39.240Z,-1.02
2023-01-27T17:57:14.059Z,-1.01
2023-01-27T17:59:46.613Z,-1.02
2023-01-27T18:02:20.985Z,-0.96
2023-01-27T18:04:49.157Z,-0.94
2023-01-27T18:07:16.944Z,-0.91
2023-01-27T18:09:46.465Z,-0.95
2023-01-27T18:12:30.531Z,-0.88
2023-01-27T18:14:58.343Z,-0.90
2023-01-27T18:17:27.855Z,-0.85
2023-01-27T18:19:57.184Z,-0.89
2023-01-27T18:22:26.972Z,-0.89
2023-01-27T18:24:57.195Z,-0.86
2023-01-27T18:27:29.731Z,-0.85
2023-01-27T18:30:02.086Z,-0.83
2023-01-27T18:32:38.720Z,-0.80
2023-01-27T18:35:24.118Z,-0.79
2023-01-27T18:37:54.856Z,-0.76
2023-01-27T18:40:31.160Z,-0.80
2023-01-27T18:43:01.429Z,-0.78
2023-01-27T18:45:29.299Z,-0.85
2023-01-27T18:47:57.516Z,-0.88
2023-01-27T18:50:26.601Z,-0.91
2023-01-27T18:52:55.235Z,-0.89
2023-01-27T18:55:24.808Z,-0.87
2023-01-27T18:57:56.485Z,-0.82
2023-01-27T19:00:27.140Z,-0.84
2023-01-27T19:02:59.002Z,-0.83
2023-01-27T19:05:29.528Z,-0.80
2023-01-27T19:07:59.713Z,-0.82
2023-01-27T19:10:31.068Z,-0.82
2023-01-27T19:13:04.045Z,-0.75
2023-01-27T19:15:35.016Z,-0.76
2023-01-27T19:18:10.068Z,-0.77
2023-01-27T19:20:37.759Z,-0.74
2023-01-27T19:23:05.459Z,-0.78
2023-01-27T19:25:33.127Z,-0.74
2023-01-27T19:28:05.414Z,-0.75
2023-01-27T19:30:37.246Z,-0.72
2023-01-27T19:33:05.836Z,-0.77
2023-01-27T19:35:33.584Z,-0.80
2023-01-27T19:38:05.496Z,-0.76
2023-01-27T19:40:33.500Z,-0.76
2023-01-27T19:43:01.256Z,-0.79
2023-01-27T19:45:29.112Z,-0.83
2023-01-27T19:47:59.812Z,-0.79
2023-01-27T19:50:30.273Z,-0.79
2023-01-27T19:52:58.366Z,-0.77
2023-01-27T19:55:26.537Z,-0.77
2023-01-27T19:57:54.271Z,-0.80
2023-01-27T20:00:25.521Z,-0.83
2023-01-27T20:02:53.482Z,-0.81
2023-01-27T20:05:23.119Z,-0.81
2023-01-27T20:07:54.060Z,-0.79
2023-01-27T20:10:24.061Z,-0.80
2023-01-27T20:12:57.115Z,-0.77
2023-01-27T20:15:25.880Z,-0.81
2023-01-27T20:17:53.886Z,-0.84
2023-01-27T20:20:24.063Z,-0.86
2023-01-27T20:22:52.785Z,-0.85
2023-01-27T20:25:22.445Z,-0.88
2023-01-27T20:27:52.705Z,-0.85
2023-01-27T20:30:21.902Z,-0.86
2023-01-27T20:32:49.750Z,-0.89
2023-01-27T20:35:20.331Z,-0.92
2023-01-27T20:37:50.678Z,-0.93
2023-01-27T20:40:22.857Z,-0.92
2023-01-27T20:42:50.939Z,-0.89
2023-01-27T20:45:20.718Z,-0.89
2023-01-27T20:47:52.470Z,-0.90
2023-01-27T20:50:21.329Z,-0.93
2023-01-27T20:52:50.505Z,-0.88
2023-01-27T20:55:19.574Z,-0.91
2023-01-27T20:57:47.550Z,-0.88
2023-01-27T21:00:18.055Z,-0.92
2023-01-27T21:02:45.745Z,-0.95
2023-01-27T21:05:14.420Z,-0.97
2023-01-27T21:07:42.831Z,-0.94
2023-01-27T21:10:12.745Z,-0.93
2023-01-27T21:12:40.597Z,-0.94
2023-01-27T21:15:10.050Z,-0.97
2023-01-27T21:17:37.949Z,-1.00
2023-01-27T21:20:07.134Z,-0.97
2023-01-27T21:22:35.113Z,-0.97
2023-01-27T21:25:02.828Z,-1.01
2023-01-27T21:27:31.874Z,-1.05
2023-01-27T21:29:59.536Z,-1.04
2023-01-27T21:32:27.328Z,-1.02
2023-01-27T21:34:56.468Z,-0.94
2023-01-27T21:37:24.201Z,-0.96
2023-01-27T21:39:51.940Z,-0.99
2023-01-27T21:42:37.388Z,-1.06
2023-01-27T21:45:14.963Z,-1.09
2023-01-27T21:47:43.143Z,-1.07
2023-01-27T21:50:12.470Z,-1.08
2023-01-27T21:52:42.256Z,-1.07
2023-01-27T21:55:14.855Z,-1.03
2023-01-27T21:57:48.332Z,-1.07
2023-01-27T22:00:22.743Z,-1.06
2023-01-27T22:02:54.923Z,-1.03
2023-01-27T22:05:23.230Z,-1.00
2023-01-27T22:07:51.795Z,-1.03
2023-01-27T22:10:21.307Z,-1.02
2023-01-27T22:12:51.159Z,-1.06
2023-01-27T22:15:21.032Z,-1.03
2023-01-27T22:17:50.860Z,-1.06
2023-01-27T22:20:21.752Z,-1.03
2023-01-27T22:22:51.106Z,-1.02
2023-01-27T22:25:19.610Z,-1.12
2023-01-27T22:27:47.555Z,-1.08
2023-01-27T22:30:17.681Z,-1.08
2023-01-27T22:32:47.931Z,-1.13
2023-01-27T22:35:18.011Z,-1.16
2023-01-27T22:37:46.373Z,-1.11
2023-01-27T22:40:14.754Z,-1.18
2023-01-27T22:42:42.475Z,-1.16
2023-01-27T22:45:11.792Z,-1.10
2023-01-27T22:47:39.776Z,-1.16
2023-01-27T22:50:13.157Z,-1.12
2023-01-27T22:52:43.746Z,-1.15
2023-01-27T23:01:41.714Z,-1.25
2023-01-27T23:04:12.183Z,-1.22
2023-01-27T23:06:39.995Z,-1.24
2023-01-27T23:09:07.881Z,-1.31
2023-01-27T23:11:35.574Z,-1.26
2023-01-27T23:14:03.316Z,-1.27
2023-01-27T23:16:31.339Z,-1.24
2023-01-27T23:19:04.469Z,-1.30
2023-01-27T23:21:32.478Z,-1.32
2023-01-27T23:24:00.262Z,-1.35
2023-01-27T23:26:27.987Z,-1.34
2023-01-27T23:31:34.792Z,-1.32
2023-01-27T23:34:03.894Z,-1.29
2023-01-27T23:36:31.538Z,-1.33
2023-01-27T23:38:59.273Z,-1.31
2023-01-27T23:41:26.903Z,-1.33
2023-01-27T23:43:56.259Z,-1.38
2023-01-27T23:46:24.685Z,-1.42
2023-01-27T23:48:53.068Z,-1.39
2023-01-27T23:51:23.610Z,-1.42
2023-01-27T23:53:51.792Z,-1.40
2023-01-27T23:56:21.379Z,-1.39
2023-01-27T23:58:49.226Z,-1.41
